sensor_id;sensor_type;location;lat;lon;timestamp;P1;durP1;ratioP1;P2;durP2;ratioP2
41713;SDS011;27401;47.384;13.666;2023-06-22T00:01:49;13.30;;;4.93;;
41713;SDS011;27401;47.384;13.666;2023-06-22T00:04:15;12.55;;;4.90;;
41713;SDS011;27401;47.384;13.666;2023-06-22T00:06:40;17.17;;;5.35;;
41713;SDS011;27401;47.384;13.666;2023-06-22T00:09:06;13.00;;;4.57;;
41713;SDS011;27401;47.384;13.666;2023-06-22T00:11:32;11.80;;;4.65;;
41713;SDS011;27401;47.384;13.666;2023-06-22T00:13:58;10.20;;;4.75;;
41713;SDS011;27401;47.384;13.666;2023-06-22T00:16:24;17.73;;;4.15;;
41713;SDS011;27401;47.384;13.666;2023-06-22T00:18:50;13.93;;;4.93;;
41713;SDS011;27401;47.384;13.666;2023-06-22T00:21:15;10.98;;;4.90;;
41713;SDS011;27401;47.384;13.666;2023-06-22T00:23:41;9.20;;;4.35;;
41713;SDS011;27401;47.384;13.666;2023-06-22T00:26:07;11.38;;;4.55;;
41713;SDS011;27401;47.384;13.666;2023-06-22T00:28:34;8.93;;;4.07;;
41713;SDS011;27401;47.384;13.666;2023-06-22T00:31:00;10.07;;;4.60;;
41713;SDS011;27401;47.384;13.666;2023-06-22T00:33:26;9.55;;;4.50;;
41713;SDS011;27401;47.384;13.666;2023-06-22T00:35:53;10.88;;;3.83;;
41713;SDS011;27401;47.384;13.666;2023-06-22T00:38:19;10.77;;;4.65;;
41713;SDS011;27401;47.384;13.666;2023-06-22T00:40:45;15.98;;;4.88;;
41713;SDS011;27401;47.384;13.666;2023-06-22T00:43:10;14.63;;;4.80;;
41713;SDS011;27401;47.384;13.666;2023-06-22T00:45:36;9.25;;;4.40;;
41713;SDS011;27401;47.384;13.666;2023-06-22T00:48:01;15.27;;;4.53;;
41713;SDS011;27401;47.384;13.666;2023-06-22T00:50:32;14.38;;;4.25;;
41713;SDS011;27401;47.384;13.666;2023-06-22T00:53:03;12.05;;;4.20;;
41713;SDS011;27401;47.384;13.666;2023-06-22T00:55:38;13.45;;;3.70;;
41713;SDS011;27401;47.384;13.666;2023-06-22T00:58:08;9.57;;;4.30;;
41713;SDS011;27401;47.384;13.666;2023-06-22T01:00:36;13.18;;;4.13;;
41713;SDS011;27401;47.384;13.666;2023-06-22T01:03:02;11.55;;;4.38;;
41713;SDS011;27401;47.384;13.666;2023-06-22T01:05:28;12.98;;;4.43;;
41713;SDS011;27401;47.384;13.666;2023-06-22T01:08:00;16.65;;;4.70;;
41713;SDS011;27401;47.384;13.666;2023-06-22T01:10:44;13.07;;;4.15;;
41713;SDS011;27401;47.384;13.666;2023-06-22T01:16:13;11.05;;;4.55;;
41713;SDS011;27401;47.384;13.666;2023-06-22T01:18:42;10.32;;;3.97;;
41713;SDS011;27401;47.384;13.666;2023-06-22T01:21:09;11.38;;;4.50;;
41713;SDS011;27401;47.384;13.666;2023-06-22T01:26:42;13.00;;;3.92;;
41713;SDS011;27401;47.384;13.666;2023-06-22T01:29:10;9.23;;;4.00;;
41713;SDS011;27401;47.384;13.666;2023-06-22T01:31:40;10.20;;;4.33;;
41713;SDS011;27401;47.384;13.666;2023-06-22T01:34:06;13.35;;;4.72;;
41713;SDS011;27401;47.384;13.666;2023-06-22T01:36:34;12.27;;;4.82;;
41713;SDS011;27401;47.384;13.666;2023-06-22T01:39:00;14.80;;;5.22;;
41713;SDS011;27401;47.384;13.666;2023-06-22T01:41:29;12.88;;;6.03;;
41713;SDS011;27401;47.384;13.666;2023-06-22T01:43:55;15.63;;;7.45;;
41713;SDS011;27401;47.384;13.666;2023-06-22T01:46:21;20.80;;;7.90;;
41713;SDS011;27401;47.384;13.666;2023-06-22T01:48:47;13.98;;;6.20;;
41713;SDS011;27401;47.384;13.666;2023-06-22T01:51:13;16.13;;;6.72;;
41713;SDS011;27401;47.384;13.666;2023-06-22T01:53:39;10.63;;;5.13;;
41713;SDS011;27401;47.384;13.666;2023-06-22T01:56:05;13.85;;;4.43;;
41713;SDS011;27401;47.384;13.666;2023-06-22T01:58:31;14.20;;;5.90;;
41713;SDS011;27401;47.384;13.666;2023-06-22T02:01:01;15.07;;;7.50;;
41713;SDS011;27401;47.384;13.666;2023-06-22T02:03:37;12.63;;;4.90;;
41713;SDS011;27401;47.384;13.666;2023-06-22T02:06:08;23.15;;;7.88;;
41713;SDS011;27401;47.384;13.666;2023-06-22T02:08:40;40.58;;;8.20;;
41713;SDS011;27401;47.384;13.666;2023-06-22T02:11:07;20.17;;;8.73;;
41713;SDS011;27401;47.384;13.666;2023-06-22T02:13:35;55.10;;;9.52;;
41713;SDS011;27401;47.384;13.666;2023-06-22T02:16:02;19.80;;;8.80;;
41713;SDS011;27401;47.384;13.666;2023-06-22T02:18:27;39.45;;;9.25;;
41713;SDS011;27401;47.384;13.666;2023-06-22T02:20:53;12.93;;;6.45;;
41713;SDS011;27401;47.384;13.666;2023-06-22T02:23:18;14.55;;;5.80;;
41713;SDS011;27401;47.384;13.666;2023-06-22T02:25:44;16.27;;;7.20;;
41713;SDS011;27401;47.384;13.666;2023-06-22T02:28:10;23.02;;;6.60;;
41713;SDS011;27401;47.384;13.666;2023-06-22T02:30:36;14.07;;;6.05;;
41713;SDS011;27401;47.384;13.666;2023-06-22T02:33:02;18.98;;;6.80;;
41713;SDS011;27401;47.384;13.666;2023-06-22T02:35:28;18.23;;;7.38;;
41713;SDS011;27401;47.384;13.666;2023-06-22T02:38:00;13.00;;;5.13;;
41713;SDS011;27401;47.384;13.666;2023-06-22T02:40:27;20.65;;;6.95;;
41713;SDS011;27401;47.384;13.666;2023-06-22T02:42:55;10.85;;;6.55;;
41713;SDS011;27401;47.384;13.666;2023-06-22T02:45:23;19.58;;;8.27;;
41713;SDS011;27401;47.384;13.666;2023-06-22T02:47:49;13.57;;;5.78;;
41713;SDS011;27401;47.384;13.666;2023-06-22T02:50:15;18.17;;;5.75;;
41713;SDS011;27401;47.384;13.666;2023-06-22T02:52:40;13.48;;;4.97;;
41713;SDS011;27401;47.384;13.666;2023-06-22T02:55:06;10.75;;;4.10;;
41713;SDS011;27401;47.384;13.666;2023-06-22T02:57:35;14.45;;;5.82;;
41713;SDS011;27401;47.384;13.666;2023-06-22T03:00:02;14.30;;;5.78;;
41713;SDS011;27401;47.384;13.666;2023-06-22T03:02:37;13.10;;;5.70;;
41713;SDS011;27401;47.384;13.666;2023-06-22T03:05:03;16.38;;;5.30;;
41713;SDS011;27401;47.384;13.666;2023-06-22T03:07:29;12.05;;;5.63;;
41713;SDS011;27401;47.384;13.666;2023-06-22T03:09:56;19.00;;;7.38;;
41713;SDS011;27401;47.384;13.666;2023-06-22T03:12:22;15.80;;;6.97;;
41713;SDS011;27401;47.384;13.666;2023-06-22T03:14:51;15.70;;;6.82;;
41713;SDS011;27401;47.384;13.666;2023-06-22T03:17:17;16.70;;;7.25;;
41713;SDS011;27401;47.384;13.666;2023-06-22T03:19:43;17.00;;;7.63;;
41713;SDS011;27401;47.384;13.666;2023-06-22T03:22:08;26.17;;;8.10;;
41713;SDS011;27401;47.384;13.666;2023-06-22T03:24:34;17.13;;;6.10;;
41713;SDS011;27401;47.384;13.666;2023-06-22T03:27:00;31.77;;;6.90;;
41713;SDS011;27401;47.384;13.666;2023-06-22T03:29:25;19.38;;;6.38;;
41713;SDS011;27401;47.384;13.666;2023-06-22T03:31:51;16.02;;;6.00;;
41713;SDS011;27401;47.384;13.666;2023-06-22T03:34:16;11.68;;;5.30;;
41713;SDS011;27401;47.384;13.666;2023-06-22T03:36:42;20.00;;;6.45;;
41713;SDS011;27401;47.384;13.666;2023-06-22T03:39:10;12.43;;;5.60;;
41713;SDS011;27401;47.384;13.666;2023-06-22T03:41:35;25.27;;;7.63;;
41713;SDS011;27401;47.384;13.666;2023-06-22T03:44:01;24.88;;;8.95;;
41713;SDS011;27401;47.384;13.666;2023-06-22T03:46:27;16.70;;;6.10;;
41713;SDS011;27401;47.384;13.666;2023-06-22T03:48:53;17.13;;;7.82;;
41713;SDS011;27401;47.384;13.666;2023-06-22T03:51:18;41.25;;;8.52;;
41713;SDS011;27401;47.384;13.666;2023-06-22T03:53:44;29.85;;;7.90;;
41713;SDS011;27401;47.384;13.666;2023-06-22T03:56:09;55.00;;;9.27;;
41713;SDS011;27401;47.384;13.666;2023-06-22T03:58:35;52.72;;;8.68;;
41713;SDS011;27401;47.384;13.666;2023-06-22T04:01:02;50.80;;;8.93;;
41713;SDS011;27401;47.384;13.666;2023-06-22T04:03:27;23.13;;;6.97;;
41713;SDS011;27401;47.384;13.666;2023-06-22T04:05:53;21.10;;;6.95;;
41713;SDS011;27401;47.384;13.666;2023-06-22T04:08:18;27.45;;;7.85;;
41713;SDS011;27401;47.384;13.666;2023-06-22T04:10:44;43.00;;;7.50;;
41713;SDS011;27401;47.384;13.666;2023-06-22T04:13:10;33.72;;;7.60;;
41713;SDS011;27401;47.384;13.666;2023-06-22T04:15:35;17.02;;;6.15;;
41713;SDS011;27401;47.384;13.666;2023-06-22T04:18:01;14.48;;;6.45;;
41713;SDS011;27401;47.384;13.666;2023-06-22T04:20:27;32.47;;;6.75;;
41713;SDS011;27401;47.384;13.666;2023-06-22T04:22:55;18.27;;;8.18;;
41713;SDS011;27401;47.384;13.666;2023-06-22T04:25:21;14.68;;;7.45;;
41713;SDS011;27401;47.384;13.666;2023-06-22T04:27:47;18.35;;;5.90;;
41713;SDS011;27401;47.384;13.666;2023-06-22T04:30:13;19.27;;;7.28;;
41713;SDS011;27401;47.384;13.666;2023-06-22T04:32:40;25.40;;;7.25;;
41713;SDS011;27401;47.384;13.666;2023-06-22T04:35:06;19.70;;;7.00;;
41713;SDS011;27401;47.384;13.666;2023-06-22T04:37:32;16.98;;;6.68;;
41713;SDS011;27401;47.384;13.666;2023-06-22T04:39:58;15.10;;;7.10;;
41713;SDS011;27401;47.384;13.666;2023-06-22T04:42:27;9.52;;;6.57;;
41713;SDS011;27401;47.384;13.666;2023-06-22T04:44:52;20.02;;;7.32;;
41713;SDS011;27401;47.384;13.666;2023-06-22T04:47:18;23.05;;;6.63;;
41713;SDS011;27401;47.384;13.666;2023-06-22T04:49:44;15.10;;;6.35;;
41713;SDS011;27401;47.384;13.666;2023-06-22T04:52:10;20.85;;;7.60;;
41713;SDS011;27401;47.384;13.666;2023-06-22T04:54:37;22.25;;;9.38;;
41713;SDS011;27401;47.384;13.666;2023-06-22T04:57:04;12.85;;;6.70;;
41713;SDS011;27401;47.384;13.666;2023-06-22T04:59:35;14.85;;;6.22;;
41713;SDS011;27401;47.384;13.666;2023-06-22T05:02:01;17.70;;;6.93;;
41713;SDS011;27401;47.384;13.666;2023-06-22T05:04:28;11.50;;;6.15;;
41713;SDS011;27401;47.384;13.666;2023-06-22T05:06:58;13.18;;;6.72;;
41713;SDS011;27401;47.384;13.666;2023-06-22T05:09:25;11.27;;;5.57;;
41713;SDS011;27401;47.384;13.666;2023-06-22T05:11:50;14.23;;;5.22;;
41713;SDS011;27401;47.384;13.666;2023-06-22T05:14:16;11.98;;;6.55;;
41713;SDS011;27401;47.384;13.666;2023-06-22T05:16:43;14.18;;;6.25;;
41713;SDS011;27401;47.384;13.666;2023-06-22T05:19:09;13.88;;;6.00;;
41713;SDS011;27401;47.384;13.666;2023-06-22T05:21:35;12.85;;;6.82;;
41713;SDS011;27401;47.384;13.666;2023-06-22T05:24:01;11.52;;;5.68;;
41713;SDS011;27401;47.384;13.666;2023-06-22T05:26:31;17.08;;;7.40;;
41713;SDS011;27401;47.384;13.666;2023-06-22T05:28:58;14.57;;;7.87;;
41713;SDS011;27401;47.384;13.666;2023-06-22T05:31:25;14.20;;;7.75;;
41713;SDS011;27401;47.384;13.666;2023-06-22T05:33:52;10.30;;;6.45;;
41713;SDS011;27401;47.384;13.666;2023-06-22T05:36:18;14.50;;;7.95;;
41713;SDS011;27401;47.384;13.666;2023-06-22T05:38:46;10.27;;;6.07;;
41713;SDS011;27401;47.384;13.666;2023-06-22T05:41:12;10.57;;;5.93;;
41713;SDS011;27401;47.384;13.666;2023-06-22T05:43:39;16.90;;;9.27;;
41713;SDS011;27401;47.384;13.666;2023-06-22T05:46:05;12.57;;;7.10;;
41713;SDS011;27401;47.384;13.666;2023-06-22T05:48:30;15.93;;;7.03;;
41713;SDS011;27401;47.384;13.666;2023-06-22T05:50:56;10.57;;;6.93;;
41713;SDS011;27401;47.384;13.666;2023-06-22T05:53:22;14.15;;;7.18;;
41713;SDS011;27401;47.384;13.666;2023-06-22T05:55:47;18.08;;;8.65;;
41713;SDS011;27401;47.384;13.666;2023-06-22T05:58:13;12.20;;;8.13;;
41713;SDS011;27401;47.384;13.666;2023-06-22T06:00:39;14.80;;;7.22;;
41713;SDS011;27401;47.384;13.666;2023-06-22T06:03:05;13.45;;;7.95;;
41713;SDS011;27401;47.384;13.666;2023-06-22T06:05:32;14.80;;;7.47;;
41713;SDS011;27401;47.384;13.666;2023-06-22T06:08:02;9.35;;;5.70;;
41713;SDS011;27401;47.384;13.666;2023-06-22T06:10:30;9.35;;;6.07;;
41713;SDS011;27401;47.384;13.666;2023-06-22T06:12:56;13.45;;;7.85;;
41713;SDS011;27401;47.384;13.666;2023-06-22T06:15:21;12.75;;;6.93;;
41713;SDS011;27401;47.384;13.666;2023-06-22T06:17:48;10.20;;;6.40;;
41713;SDS011;27401;47.384;13.666;2023-06-22T06:20:14;14.77;;;7.07;;
41713;SDS011;27401;47.384;13.666;2023-06-22T06:22:40;13.95;;;7.28;;
41713;SDS011;27401;47.384;13.666;2023-06-22T06:25:08;18.70;;;8.15;;
41713;SDS011;27401;47.384;13.666;2023-06-22T06:27:33;12.68;;;7.70;;
41713;SDS011;27401;47.384;13.666;2023-06-22T06:29:59;12.27;;;6.93;;
41713;SDS011;27401;47.384;13.666;2023-06-22T06:32:25;11.35;;;6.65;;
41713;SDS011;27401;47.384;13.666;2023-06-22T06:34:50;12.68;;;6.95;;
41713;SDS011;27401;47.384;13.666;2023-06-22T06:37:16;14.80;;;7.90;;
41713;SDS011;27401;47.384;13.666;2023-06-22T06:39:43;14.63;;;7.78;;
41713;SDS011;27401;47.384;13.666;2023-06-22T06:42:09;13.00;;;6.43;;
41713;SDS011;27401;47.384;13.666;2023-06-22T06:44:36;11.70;;;6.57;;
41713;SDS011;27401;47.384;13.666;2023-06-22T06:47:03;9.52;;;5.60;;
41713;SDS011;27401;47.384;13.666;2023-06-22T06:49:29;12.90;;;6.38;;
41713;SDS011;27401;47.384;13.666;2023-06-22T06:51:55;10.68;;;6.13;;
41713;SDS011;27401;47.384;13.666;2023-06-22T06:54:21;13.02;;;6.90;;
41713;SDS011;27401;47.384;13.666;2023-06-22T06:56:47;17.13;;;7.07;;
41713;SDS011;27401;47.384;13.666;2023-06-22T06:59:16;16.10;;;7.78;;
41713;SDS011;27401;47.384;13.666;2023-06-22T07:01:42;13.55;;;7.30;;
41713;SDS011;27401;47.384;13.666;2023-06-22T07:04:09;15.18;;;7.30;;
41713;SDS011;27401;47.384;13.666;2023-06-22T07:06:35;12.82;;;7.30;;
41713;SDS011;27401;47.384;13.666;2023-06-22T07:09:01;8.95;;;5.68;;
41713;SDS011;27401;47.384;13.666;2023-06-22T07:11:26;8.27;;;5.93;;
41713;SDS011;27401;47.384;13.666;2023-06-22T07:13:52;15.10;;;6.65;;
41713;SDS011;27401;47.384;13.666;2023-06-22T07:16:17;15.50;;;6.25;;
41713;SDS011;27401;47.384;13.666;2023-06-22T07:18:43;10.27;;;5.88;;
41713;SDS011;27401;47.384;13.666;2023-06-22T07:21:09;13.13;;;6.45;;
41713;SDS011;27401;47.384;13.666;2023-06-22T07:23:35;13.15;;;6.28;;
41713;SDS011;27401;47.384;13.666;2023-06-22T07:26:00;12.80;;;7.15;;
41713;SDS011;27401;47.384;13.666;2023-06-22T07:28:31;13.75;;;6.68;;
41713;SDS011;27401;47.384;13.666;2023-06-22T07:31:02;12.57;;;7.32;;
41713;SDS011;27401;47.384;13.666;2023-06-22T07:33:28;13.18;;;6.28;;
41713;SDS011;27401;47.384;13.666;2023-06-22T07:35:53;9.73;;;5.72;;
41713;SDS011;27401;47.384;13.666;2023-06-22T07:38:19;15.77;;;6.63;;
41713;SDS011;27401;47.384;13.666;2023-06-22T07:40:45;14.40;;;8.25;;
41713;SDS011;27401;47.384;13.666;2023-06-22T07:43:10;14.90;;;6.75;;
41713;SDS011;27401;47.384;13.666;2023-06-22T07:45:37;7.72;;;5.18;;
41713;SDS011;27401;47.384;13.666;2023-06-22T07:48:04;10.48;;;5.88;;
41713;SDS011;27401;47.384;13.666;2023-06-22T07:50:30;12.75;;;5.63;;
41713;SDS011;27401;47.384;13.666;2023-06-22T07:52:56;6.80;;;4.65;;
41713;SDS011;27401;47.384;13.666;2023-06-22T07:55:21;8.93;;;5.07;;
41713;SDS011;27401;47.384;13.666;2023-06-22T07:57:48;12.77;;;6.63;;
41713;SDS011;27401;47.384;13.666;2023-06-22T08:00:14;15.25;;;6.82;;
41713;SDS011;27401;47.384;13.666;2023-06-22T08:02:42;11.90;;;5.25;;
41713;SDS011;27401;47.384;13.666;2023-06-22T08:05:09;11.75;;;5.57;;
41713;SDS011;27401;47.384;13.666;2023-06-22T08:07:35;7.60;;;4.68;;
41713;SDS011;27401;47.384;13.666;2023-06-22T08:10:02;7.35;;;4.53;;
41713;SDS011;27401;47.384;13.666;2023-06-22T08:12:29;12.98;;;5.65;;
41713;SDS011;27401;47.384;13.666;2023-06-22T08:14:54;11.90;;;4.85;;
41713;SDS011;27401;47.384;13.666;2023-06-22T08:17:20;8.35;;;4.90;;
41713;SDS011;27401;47.384;13.666;2023-06-22T08:19:45;9.50;;;5.85;;
41713;SDS011;27401;47.384;13.666;2023-06-22T08:22:11;11.15;;;4.97;;
41713;SDS011;27401;47.384;13.666;2023-06-22T08:24:36;13.13;;;6.18;;
41713;SDS011;27401;47.384;13.666;2023-06-22T08:27:02;15.68;;;5.78;;
41713;SDS011;27401;47.384;13.666;2023-06-22T08:29:27;11.07;;;5.95;;
41713;SDS011;27401;47.384;13.666;2023-06-22T08:31:53;11.63;;;4.60;;
41713;SDS011;27401;47.384;13.666;2023-06-22T08:34:19;15.55;;;6.28;;
41713;SDS011;27401;47.384;13.666;2023-06-22T08:36:50;12.45;;;7.30;;
41713;SDS011;27401;47.384;13.666;2023-06-22T08:39:18;15.70;;;5.88;;
41713;SDS011;27401;47.384;13.666;2023-06-22T08:41:45;10.07;;;4.70;;
41713;SDS011;27401;47.384;13.666;2023-06-22T08:44:12;12.60;;;5.68;;
41713;SDS011;27401;47.384;13.666;2023-06-22T08:46:37;9.60;;;5.47;;
41713;SDS011;27401;47.384;13.666;2023-06-22T08:49:05;11.70;;;5.65;;
41713;SDS011;27401;47.384;13.666;2023-06-22T08:51:31;9.07;;;5.30;;
41713;SDS011;27401;47.384;13.666;2023-06-22T08:53:56;8.43;;;5.63;;
41713;SDS011;27401;47.384;13.666;2023-06-22T08:56:22;11.25;;;5.25;;
41713;SDS011;27401;47.384;13.666;2023-06-22T08:58:47;8.18;;;4.90;;
41713;SDS011;27401;47.384;13.666;2023-06-22T09:01:13;7.68;;;4.55;;
41713;SDS011;27401;47.384;13.666;2023-06-22T09:03:40;13.10;;;5.00;;
41713;SDS011;27401;47.384;13.666;2023-06-22T09:06:06;15.93;;;6.07;;
41713;SDS011;27401;47.384;13.666;2023-06-22T09:08:34;12.15;;;4.95;;
41713;SDS011;27401;47.384;13.666;2023-06-22T09:11:01;9.15;;;4.13;;
41713;SDS011;27401;47.384;13.666;2023-06-22T09:13:27;15.50;;;6.28;;
41713;SDS011;27401;47.384;13.666;2023-06-22T09:15:55;10.95;;;6.03;;
41713;SDS011;27401;47.384;13.666;2023-06-22T09:18:21;14.43;;;8.32;;
41713;SDS011;27401;47.384;13.666;2023-06-22T09:20:46;20.45;;;12.88;;
41713;SDS011;27401;47.384;13.666;2023-06-22T09:23:12;13.98;;;7.20;;
41713;SDS011;27401;47.384;13.666;2023-06-22T09:25:38;10.10;;;5.95;;
41713;SDS011;27401;47.384;13.666;2023-06-22T09:28:03;12.10;;;5.75;;
41713;SDS011;27401;47.384;13.666;2023-06-22T09:30:29;17.30;;;6.88;;
41713;SDS011;27401;47.384;13.666;2023-06-22T09:32:54;11.38;;;5.88;;
41713;SDS011;27401;47.384;13.666;2023-06-22T09:35:20;12.90;;;5.63;;
41713;SDS011;27401;47.384;13.666;2023-06-22T09:37:45;16.63;;;6.00;;
41713;SDS011;27401;47.384;13.666;2023-06-22T09:40:11;20.38;;;6.57;;
41713;SDS011;27401;47.384;13.666;2023-06-22T09:42:38;16.65;;;6.68;;
41713;SDS011;27401;47.384;13.666;2023-06-22T09:45:04;11.35;;;5.38;;
41713;SDS011;27401;47.384;13.666;2023-06-22T09:47:31;15.55;;;5.35;;
41713;SDS011;27401;47.384;13.666;2023-06-22T09:49:56;11.00;;;5.07;;
41713;SDS011;27401;47.384;13.666;2023-06-22T09:52:24;9.38;;;4.60;;
41713;SDS011;27401;47.384;13.666;2023-06-22T09:54:49;10.35;;;5.00;;
41713;SDS011;27401;47.384;13.666;2023-06-22T09:57:15;11.07;;;5.72;;
41713;SDS011;27401;47.384;13.666;2023-06-22T09:59:41;16.80;;;6.78;;
41713;SDS011;27401;47.384;13.666;2023-06-22T10:02:06;12.25;;;5.63;;
41713;SDS011;27401;47.384;13.666;2023-06-22T10:04:33;15.10;;;5.72;;
41713;SDS011;27401;47.384;13.666;2023-06-22T10:06:59;8.98;;;5.07;;
41713;SDS011;27401;47.384;13.666;2023-06-22T10:09:24;14.85;;;6.30;;
41713;SDS011;27401;47.384;13.666;2023-06-22T10:11:50;16.95;;;6.95;;
41713;SDS011;27401;47.384;13.666;2023-06-22T10:14:16;13.15;;;5.72;;
41713;SDS011;27401;47.384;13.666;2023-06-22T10:16:42;15.48;;;5.57;;
41713;SDS011;27401;47.384;13.666;2023-06-22T10:19:07;13.68;;;5.50;;
41713;SDS011;27401;47.384;13.666;2023-06-22T10:21:33;11.05;;;5.50;;
41713;SDS011;27401;47.384;13.666;2023-06-22T10:24:00;14.10;;;5.63;;
41713;SDS011;27401;47.384;13.666;2023-06-22T10:26:34;17.00;;;6.10;;
41713;SDS011;27401;47.384;13.666;2023-06-22T10:29:00;11.77;;;5.90;;
41713;SDS011;27401;47.384;13.666;2023-06-22T10:31:26;16.13;;;5.70;;
41713;SDS011;27401;47.384;13.666;2023-06-22T10:33:52;13.77;;;6.43;;
41713;SDS011;27401;47.384;13.666;2023-06-22T10:36:18;16.23;;;5.97;;
41713;SDS011;27401;47.384;13.666;2023-06-22T10:38:44;24.73;;;5.82;;
41713;SDS011;27401;47.384;13.666;2023-06-22T10:41:10;10.52;;;5.45;;
41713;SDS011;27401;47.384;13.666;2023-06-22T10:43:36;14.52;;;5.95;;
41713;SDS011;27401;47.384;13.666;2023-06-22T10:46:01;16.40;;;6.03;;
41713;SDS011;27401;47.384;13.666;2023-06-22T10:48:27;10.98;;;5.90;;
41713;SDS011;27401;47.384;13.666;2023-06-22T10:50:53;15.68;;;7.03;;
41713;SDS011;27401;47.384;13.666;2023-06-22T10:53:19;16.42;;;6.80;;
41713;SDS011;27401;47.384;13.666;2023-06-22T10:55:45;4.85;;;3.20;;
41713;SDS011;27401;47.384;13.666;2023-06-22T10:58:11;10.30;;;4.32;;
41713;SDS011;27401;47.384;13.666;2023-06-22T11:00:36;13.23;;;5.55;;
41713;SDS011;27401;47.384;13.666;2023-06-22T11:03:02;11.18;;;5.53;;
41713;SDS011;27401;47.384;13.666;2023-06-22T11:05:27;13.55;;;5.20;;
41713;SDS011;27401;47.384;13.666;2023-06-22T11:07:53;14.93;;;6.00;;
41713;SDS011;27401;47.384;13.666;2023-06-22T11:10:18;12.88;;;5.85;;
41713;SDS011;27401;47.384;13.666;2023-06-22T11:12:44;18.50;;;6.38;;
41713;SDS011;27401;47.384;13.666;2023-06-22T11:15:09;15.50;;;6.65;;
41713;SDS011;27401;47.384;13.666;2023-06-22T11:17:35;13.02;;;5.32;;
41713;SDS011;27401;47.384;13.666;2023-06-22T11:20:01;10.73;;;4.50;;
41713;SDS011;27401;47.384;13.666;2023-06-22T11:22:29;10.35;;;5.13;;
41713;SDS011;27401;47.384;13.666;2023-06-22T11:24:58;14.48;;;5.57;;
41713;SDS011;27401;47.384;13.666;2023-06-22T11:27:24;14.70;;;5.80;;
41713;SDS011;27401;47.384;13.666;2023-06-22T11:29:49;10.55;;;5.22;;
41713;SDS011;27401;47.384;13.666;2023-06-22T11:32:15;12.38;;;5.55;;
41713;SDS011;27401;47.384;13.666;2023-06-22T11:34:40;14.65;;;5.50;;
41713;SDS011;27401;47.384;13.666;2023-06-22T11:37:06;14.43;;;6.15;;
41713;SDS011;27401;47.384;13.666;2023-06-22T11:39:31;9.57;;;5.55;;
41713;SDS011;27401;47.384;13.666;2023-06-22T11:41:57;14.98;;;5.25;;
41713;SDS011;27401;47.384;13.666;2023-06-22T11:44:22;17.13;;;6.38;;
41713;SDS011;27401;47.384;13.666;2023-06-22T11:46:48;14.48;;;6.50;;
41713;SDS011;27401;47.384;13.666;2023-06-22T11:49:14;16.50;;;6.38;;
41713;SDS011;27401;47.384;13.666;2023-06-22T11:51:39;12.93;;;6.25;;
41713;SDS011;27401;47.384;13.666;2023-06-22T11:54:05;14.30;;;7.28;;
41713;SDS011;27401;47.384;13.666;2023-06-22T11:56:30;16.73;;;8.15;;
41713;SDS011;27401;47.384;13.666;2023-06-22T11:58:57;10.60;;;6.35;;
41713;SDS011;27401;47.384;13.666;2023-06-22T12:01:22;13.85;;;6.22;;
41713;SDS011;27401;47.384;13.666;2023-06-22T12:03:48;13.65;;;5.55;;
41713;SDS011;27401;47.384;13.666;2023-06-22T12:06:13;13.38;;;6.00;;
41713;SDS011;27401;47.384;13.666;2023-06-22T12:08:39;18.23;;;6.70;;
41713;SDS011;27401;47.384;13.666;2023-06-22T12:11:04;12.25;;;5.95;;
41713;SDS011;27401;47.384;13.666;2023-06-22T12:13:30;12.95;;;5.47;;
41713;SDS011;27401;47.384;13.666;2023-06-22T12:15:56;11.55;;;5.35;;
41713;SDS011;27401;47.384;13.666;2023-06-22T12:18:21;16.25;;;6.47;;
41713;SDS011;27401;47.384;13.666;2023-06-22T12:20:47;14.55;;;6.03;;
41713;SDS011;27401;47.384;13.666;2023-06-22T12:23:13;16.17;;;6.00;;
41713;SDS011;27401;47.384;13.666;2023-06-22T12:25:39;10.32;;;5.55;;
41713;SDS011;27401;47.384;13.666;2023-06-22T12:28:04;13.90;;;5.40;;
41713;SDS011;27401;47.384;13.666;2023-06-22T12:30:30;14.52;;;5.35;;
41713;SDS011;27401;47.384;13.666;2023-06-22T12:32:57;15.77;;;5.65;;
41713;SDS011;27401;47.384;13.666;2023-06-22T12:35:23;12.82;;;5.75;;
41713;SDS011;27401;47.384;13.666;2023-06-22T12:37:49;10.98;;;4.95;;
41713;SDS011;27401;47.384;13.666;2023-06-22T12:40:14;11.23;;;5.45;;
41713;SDS011;27401;47.384;13.666;2023-06-22T12:42:40;14.95;;;5.72;;
41713;SDS011;27401;47.384;13.666;2023-06-22T12:45:06;10.30;;;5.57;;
41713;SDS011;27401;47.384;13.666;2023-06-22T12:47:32;10.00;;;5.57;;
41713;SDS011;27401;47.384;13.666;2023-06-22T12:49:58;13.10;;;5.95;;
41713;SDS011;27401;47.384;13.666;2023-06-22T12:52:24;12.18;;;5.43;;
41713;SDS011;27401;47.384;13.666;2023-06-22T12:54:49;12.32;;;5.22;;
41713;SDS011;27401;47.384;13.666;2023-06-22T12:57:15;12.32;;;5.63;;
41713;SDS011;27401;47.384;13.666;2023-06-22T12:59:42;15.57;;;5.93;;
41713;SDS011;27401;47.384;13.666;2023-06-22T13:02:08;10.57;;;5.22;;
41713;SDS011;27401;47.384;13.666;2023-06-22T13:04:33;9.68;;;5.57;;
41713;SDS011;27401;47.384;13.666;2023-06-22T13:07:00;14.57;;;5.82;;
41713;SDS011;27401;47.384;13.666;2023-06-22T13:09:25;15.80;;;6.47;;
41713;SDS011;27401;47.384;13.666;2023-06-22T13:11:50;15.15;;;6.93;;
41713;SDS011;27401;47.384;13.666;2023-06-22T13:14:17;12.25;;;5.88;;
41713;SDS011;27401;47.384;13.666;2023-06-22T13:16:44;15.00;;;6.22;;
41713;SDS011;27401;47.384;13.666;2023-06-22T13:19:09;23.25;;;7.88;;
41713;SDS011;27401;47.384;13.666;2023-06-22T13:21:35;13.65;;;5.53;;
41713;SDS011;27401;47.384;13.666;2023-06-22T13:24:00;14.40;;;6.05;;
41713;SDS011;27401;47.384;13.666;2023-06-22T13:26:26;14.23;;;5.70;;
41713;SDS011;27401;47.384;13.666;2023-06-22T13:28:53;16.63;;;5.93;;
41713;SDS011;27401;47.384;13.666;2023-06-22T13:31:19;9.70;;;5.25;;
41713;SDS011;27401;47.384;13.666;2023-06-22T13:33:45;10.38;;;5.85;;
41713;SDS011;27401;47.384;13.666;2023-06-22T13:36:13;9.95;;;5.45;;
41713;SDS011;27401;47.384;13.666;2023-06-22T13:38:38;9.70;;;5.20;;
41713;SDS011;27401;47.384;13.666;2023-06-22T13:41:05;8.85;;;5.25;;
41713;SDS011;27401;47.384;13.666;2023-06-22T13:43:30;15.27;;;6.05;;
41713;SDS011;27401;47.384;13.666;2023-06-22T13:45:57;8.48;;;5.55;;
41713;SDS011;27401;47.384;13.666;2023-06-22T13:48:22;11.55;;;5.43;;
41713;SDS011;27401;47.384;13.666;2023-06-22T13:50:48;13.13;;;5.35;;
41713;SDS011;27401;47.384;13.666;2023-06-22T13:53:14;18.25;;;6.30;;
41713;SDS011;27401;47.384;13.666;2023-06-22T13:55:40;20.65;;;7.32;;
41713;SDS011;27401;47.384;13.666;2023-06-22T13:58:06;17.02;;;6.35;;
41713;SDS011;27401;47.384;13.666;2023-06-22T14:00:32;12.63;;;5.93;;
41713;SDS011;27401;47.384;13.666;2023-06-22T14:02:57;16.60;;;6.00;;
41713;SDS011;27401;47.384;13.666;2023-06-22T14:05:23;12.15;;;6.10;;
41713;SDS011;27401;47.384;13.666;2023-06-22T14:07:48;10.65;;;5.63;;
41713;SDS011;27401;47.384;13.666;2023-06-22T14:10:14;9.65;;;5.07;;
41713;SDS011;27401;47.384;13.666;2023-06-22T14:12:39;11.95;;;5.88;;
41713;SDS011;27401;47.384;13.666;2023-06-22T14:15:05;8.52;;;4.85;;
41713;SDS011;27401;47.384;13.666;2023-06-22T14:17:31;11.02;;;4.82;;
41713;SDS011;27401;47.384;13.666;2023-06-22T14:19:56;12.93;;;5.60;;
41713;SDS011;27401;47.384;13.666;2023-06-22T14:22:22;21.48;;;8.57;;
41713;SDS011;27401;47.384;13.666;2023-06-22T14:24:48;13.45;;;7.05;;